Time;durP1;ratioP1;P1;durP2;ratioP2;P2;SDS_P1;SDS_P2;PMS_P1;PMS_P2;Temp;Humidity;BMP_temperature;BMP_pressure;BME280_temperature;BME280_humidity;BME280_pressure;Samples;Min_cycle;Max_cycle;Signal;HPM_P1;HPM_P2
2022/04/10 00:00:52;;;;;;;4.60;2.60;;;4.40;99.90;;;;;;5118092;28;20760;-71
2022/04/10 00:03:19;;;;;;;5.10;2.50;;;4.40;99.90;;;;;;5117504;28;20477;-71
2022/04/10 00:05:46;;;;;;;7.97;2.80;;;4.40;99.90;;;;;;5118010;28;20896;-71
2022/04/10 00:08:13;;;;;;;4.10;2.17;;;4.40;99.90;;;;;;5117777;28;20457;-70
2022/04/10 00:10:39;;;;;;;3.57;2.40;;;4.40;99.90;;;;;;5116712;28;20460;-70
2022/04/10 00:13:09;;;;;;;5.60;2.83;;;4.40;99.90;;;;;;5117922;28;20463;-70
2022/04/10 00:15:36;;;;;;;4.30;2.30;;;4.40;99.90;;;;;;5117256;28;20468;-70
2022/04/10 00:18:04;;;;;;;3.97;2.60;;;4.30;99.90;;;;;;5117385;28;20905;-71
2022/04/10 00:20:31;;;;;;;5.27;2.73;;;4.30;99.90;;;;;;5117569;28;20517;-71
2022/04/10 00:22:57;;;;;;;4.23;2.57;;;4.30;99.90;;;;;;5117686;28;20456;-71
2022/04/10 00:25:25;;;;;;;8.70;2.70;;;4.30;99.90;;;;;;5117651;28;20483;-71
2022/04/10 00:27:54;;;;;;;4.63;2.70;;;4.20;99.90;;;;;;5117479;28;20539;-71
2022/04/10 00:30:20;;;;;;;4.47;2.50;;;4.20;99.90;;;;;;5117043;28;20925;-71
2022/04/10 00:32:47;;;;;;;7.23;2.37;;;4.20;99.90;;;;;;5117472;28;20476;-71
2022/04/10 00:35:15;;;;;;;3.00;2.47;;;4.20;99.90;;;;;;5117038;28;20461;-71
2022/04/10 00:37:44;;;;;;;6.03;2.83;;;4.20;99.90;;;;;;5117481;28;20463;-71
2022/04/10 00:40:11;;;;;;;5.13;2.10;;;4.20;99.90;;;;;;5117300;28;20463;-71
2022/04/10 00:42:39;;;;;;;4.93;2.60;;;4.20;99.90;;;;;;5117098;28;20457;-71
2022/04/10 00:45:07;;;;;;;5.20;2.53;;;4.20;99.90;;;;;;5116873;28;20825;-71
2022/04/10 00:47:33;;;;;;;4.60;3.00;;;4.20;99.90;;;;;;5117217;28;20517;-71
2022/04/10 00:50:04;;;;;;;7.43;3.10;;;4.20;99.90;;;;;;5117397;28;20513;-71
2022/04/10 00:52:32;;;;;;;5.03;3.30;;;4.20;99.90;;;;;;5117100;28;20505;-71
2022/04/10 00:54:59;;;;;;;6.60;3.60;;;4.20;99.90;;;;;;5116661;28;20488;-71
2022/04/10 00:57:26;;;;;;;4.73;3.00;;;4.20;99.90;;;;;;5116890;28;20463;-71
2022/04/10 00:59:54;;;;;;;8.57;2.90;;;4.10;99.90;;;;;;5116495;28;20513;-71
2022/04/10 01:02:21;;;;;;;4.27;3.30;;;4.10;99.90;;;;;;5116943;28;20460;-71
2022/04/10 01:04:48;;;;;;;3.63;3.33;;;4.00;99.90;;;;;;5116299;28;20472;-71
2022/04/10 01:07:16;;;;;;;5.37;4.03;;;4.00;99.90;;;;;;5116670;28;20547;-71
2022/04/10 01:09:44;;;;;;;5.00;3.33;;;4.00;99.90;;;;;;5116415;28;20452;-70
2022/04/10 01:12:12;;;;;;;5.83;3.40;;;4.00;99.90;;;;;;5116447;28;20548;-71
2022/04/10 01:14:39;;;;;;;7.37;4.03;;;3.90;99.90;;;;;;5116387;28;20453;-70
2022/04/10 01:17:08;;;;;;;3.87;3.37;;;3.90;99.90;;;;;;5116291;28;20456;-71
2022/04/10 01:19:35;;;;;;;4.33;3.93;;;3.90;99.90;;;;;;5116075;28;20456;-71
2022/04/10 01:22:06;;;;;;;5.80;3.73;;;3.80;99.90;;;;;;5115832;28;20929;-70
2022/04/10 01:24:36;;;;;;;4.83;3.57;;;3.80;99.90;;;;;;5116445;28;20620;-70
2022/04/10 01:27:03;;;;;;;5.43;3.47;;;3.80;99.90;;;;;;5116755;28;20456;-70
2022/04/10 01:29:30;;;;;;;6.43;3.70;;;3.80;99.90;;;;;;5116355;28;20456;-70
2022/04/10 01:31:57;;;;;;;9.63;3.53;;;3.80;99.90;;;;;;5115651;28;20917;-70
2022/04/10 01:34:24;;;;;;;6.73;3.30;;;3.80;99.90;;;;;;5115919;28;20460;-71
2022/04/10 01:36:51;;;;;;;4.80;3.97;;;3.90;99.90;;;;;;5116107;28;20463;-69
2022/04/10 01:39:18;;;;;;;7.93;4.30;;;3.80;99.90;;;;;;5116882;28;20452;-71
2022/04/10 01:41:46;;;;;;;5.33;3.00;;;3.80;99.90;;;;;;5116816;28;20905;-72
2022/04/10 01:44:13;;;;;;;7.80;3.77;;;3.80;99.90;;;;;;5115524;28;20502;-71
2022/04/10 01:46:40;;;;;;;9.63;3.70;;;3.80;99.90;;;;;;5116380;28;20486;-71
2022/04/10 01:49:08;;;;;;;7.43;3.90;;;3.80;99.90;;;;;;5116303;28;20487;-71
2022/04/10 01:51:35;;;;;;;8.87;4.40;;;3.70;99.90;;;;;;5115772;28;20551;-71
2022/04/10 01:54:02;;;;;;;4.33;3.30;;;3.70;99.90;;;;;;5115306;28;20832;-71
2022/04/10 01:56:29;;;;;;;8.03;3.60;;;3.70;99.90;;;;;;5115329;28;20433;-71
2022/04/10 01:58:58;;;;;;;6.87;4.10;;;3.70;99.90;;;;;;5115752;28;20447;-71
2022/04/10 02:01:25;;;;;;;7.90;4.10;;;3.70;99.90;;;;;;5115565;28;20759;-71
2022/04/10 02:03:51;;;;;;;8.33;3.87;;;3.60;99.90;;;;;;5115553;28;20480;-70
2022/04/10 02:06:19;;;;;;;10.33;3.17;;;3.60;99.90;;;;;;5115693;28;20905;-71
2022/04/10 02:08:46;;;;;;;10.17;3.97;;;3.60;99.90;;;;;;5115668;28;20499;-70
2022/04/10 02:11:14;;;;;;;6.67;3.67;;;3.60;99.90;;;;;;5115472;28;20912;-70
2022/04/10 02:13:41;;;;;;;8.93;3.33;;;3.60;99.90;;;;;;5115229;28;20456;-70
2022/04/10 02:16:14;;;;;;;10.87;3.40;;;3.60;99.90;;;;;;5115540;28;20456;-70
2022/04/10 02:18:41;;;;;;;13.53;3.80;;;3.60;99.90;;;;;;5115327;28;20441;-70
2022/04/10 02:21:08;;;;;;;5.53;3.80;;;3.60;99.90;;;;;;5115291;28;20547;-70
2022/04/10 02:23:35;;;;;;;3.37;3.07;;;3.50;99.90;;;;;;5115039;28;20510;-70
2022/04/10 02:26:02;;;;;;;6.83;3.60;;;3.50;99.90;;;;;;5115200;28;20486;-70
2022/04/10 02:28:28;;;;;;;4.63;3.40;;;3.50;99.90;;;;;;5114961;28;20457;-70
2022/04/10 02:30:55;;;;;;;8.47;4.43;;;3.60;99.90;;;;;;5115164;28;20456;-70
2022/04/10 02:33:23;;;;;;;8.03;3.93;;;3.60;99.90;;;;;;5114028;28;20981;-70
2022/04/10 02:35:50;;;;;;;8.03;4.23;;;3.60;99.90;;;;;;5115178;28;20463;-70
2022/04/10 02:38:17;;;;;;;7.37;3.93;;;3.60;99.90;;;;;;5115101;28;20464;-70
2022/04/10 02:40:43;;;;;;;5.27;4.20;;;3.60;99.90;;;;;;5115174;28;20539;-70
2022/04/10 02:43:13;;;;;;;10.00;4.03;;;3.60;99.90;;;;;;5115215;28;20488;-70
2022/04/10 02:45:40;;;;;;;10.10;3.70;;;3.60;99.90;;;;;;5114996;28;20472;-70
2022/04/10 02:48:07;;;;;;;7.80;4.10;;;3.60;99.90;;;;;;5115283;28;20468;-70
2022/04/10 02:50:35;;;;;;;6.50;3.60;;;3.60;99.90;;;;;;5115248;28;20456;-70
2022/04/10 02:53:02;;;;;;;10.63;4.53;;;3.60;99.90;;;;;;5115525;28;20767;-71
2022/04/10 02:55:29;;;;;;;10.90;5.27;;;3.50;99.90;;;;;;5114479;28;20487;-70
2022/04/10 02:57:55;;;;;;;8.57;4.43;;;3.50;99.90;;;;;;5114897;28;20460;-70
2022/04/10 03:00:22;;;;;;;6.90;4.40;;;3.50;99.90;;;;;;5114648;28;20464;-70
2022/04/10 03:02:49;;;;;;;11.37;4.60;;;3.50;99.90;;;;;;5114902;28;20483;-70
2022/04/10 03:05:16;;;;;;;6.10;4.13;;;3.50;99.90;;;;;;5114705;28;20804;-70
2022/04/10 03:07:44;;;;;;;9.40;4.70;;;3.50;99.90;;;;;;5114654;28;21026;-70
2022/04/10 03:10:11;;;;;;;12.33;4.30;;;3.50;99.90;;;;;;5114776;28;20464;-72
2022/04/10 03:12:37;;;;;;;7.70;4.03;;;3.50;99.90;;;;;;5115302;28;20823;-71
2022/04/10 03:15:05;;;;;;;7.73;4.60;;;3.50;99.90;;;;;;5115263;28;20453;-71
2022/04/10 03:17:32;;;;;;;6.93;4.10;;;3.50;99.90;;;;;;5115007;28;20461;-71
2022/04/10 03:19:58;;;;;;;7.43;4.30;;;3.50;99.90;;;;;;5114897;28;20853;-71
2022/04/10 03:22:25;;;;;;;5.90;4.07;;;3.60;99.90;;;;;;5114578;28;20788;-70
2022/04/10 03:24:53;;;;;;;12.87;4.63;;;3.50;99.90;;;;;;5114396;28;20472;-71
2022/04/10 03:27:20;;;;;;;9.80;5.00;;;3.50;99.90;;;;;;5114659;28;20464;-72
2022/04/10 03:29:46;;;;;;;7.57;4.33;;;3.50;99.90;;;;;;5114728;28;20463;-70
2022/04/10 03:32:13;;;;;;;7.30;4.27;;;3.50;99.90;;;;;;5114443;28;20456;-69
2022/04/10 03:34:40;;;;;;;7.40;4.57;;;3.50;99.90;;;;;;5114917;28;20449;-70
2022/04/10 03:37:06;;;;;;;15.33;4.87;;;3.50;99.90;;;;;;5114724;28;20460;-71
2022/04/10 03:39:33;;;;;;;11.37;4.67;;;3.50;99.90;;;;;;5114518;28;20452;-70
2022/04/10 03:42:01;;;;;;;10.93;3.80;;;3.50;99.90;;;;;;5114721;28;20517;-70
2022/04/10 03:44:28;;;;;;;7.33;4.27;;;3.40;99.90;;;;;;5117845;28;20476;-71
2022/04/10 03:46:54;;;;;;;7.87;3.90;;;3.50;99.90;;;;;;5119944;28;20460;-71
2022/04/10 03:49:21;;;;;;;11.13;3.90;;;3.50;99.90;;;;;;5119806;28;20456;-71
2022/04/10 03:51:48;;;;;;;10.37;5.10;;;3.40;99.90;;;;;;5117700;28;20456;-70
2022/04/10 03:54:14;;;;;;;7.57;4.33;;;3.50;99.90;;;;;;5118087;28;20452;-70
2022/04/10 03:56:41;;;;;;;10.67;4.20;;;3.40;99.90;;;;;;5118234;28;20448;-70
2022/04/10 03:59:09;;;;;;;8.00;4.23;;;3.50;99.90;;;;;;5118313;28;20467;-70
2022/04/10 04:01:36;;;;;;;6.10;4.10;;;3.50;99.90;;;;;;5117818;28;20460;-71
2022/04/10 04:04:02;;;;;;;12.90;4.33;;;3.50;99.90;;;;;;5118156;28;20806;-70
2022/04/10 04:06:29;;;;;;;6.27;4.10;;;3.40;99.90;;;;;;5117796;28;20484;-71
2022/04/10 04:08:56;;;;;;;8.43;3.60;;;3.40;99.90;;;;;;5118063;28;20452;-71
2022/04/10 04:11:22;;;;;;;10.40;5.00;;;3.50;99.90;;;;;;5117976;28;20508;-71
2022/04/10 04:13:49;;;;;;;6.37;3.90;;;3.50;99.90;;;;;;5118144;28;20923;-71
2022/04/10 04:16:17;;;;;;;9.40;4.03;;;3.50;99.90;;;;;;5117676;28;20448;-71
2022/04/10 04:18:43;;;;;;;5.30;3.60;;;3.50;99.90;;;;;;5118023;28;20559;-71
2022/04/10 04:21:10;;;;;;;5.17;3.63;;;3.50;99.90;;;;;;5117947;28;20445;-71
2022/04/10 04:23:37;;;;;;;8.93;4.30;;;3.50;99.90;;;;;;5117348;28;20489;-71
2022/04/10 04:26:05;;;;;;;9.50;4.50;;;3.50;99.90;;;;;;5117412;28;20480;-71
2022/04/10 04:28:36;;;;;;;14.57;4.43;;;3.50;99.90;;;;;;5117318;28;20492;-71
2022/04/10 04:31:02;;;;;;;9.20;3.30;;;3.40;99.90;;;;;;5117702;28;20444;-70
2022/04/10 04:33:30;;;;;;;5.90;3.63;;;3.40;99.90;;;;;;5117303;28;20529;-71
2022/04/10 04:35:57;;;;;;;12.90;4.00;;;3.40;99.90;;;;;;5117422;28;20513;-71
2022/04/10 04:38:24;;;;;;;7.17;3.83;;;3.40;99.90;;;;;;5117696;28;20826;-70
2022/04/10 04:40:50;;;;;;;11.50;3.90;;;3.50;99.90;;;;;;5117218;28;20926;-70
2022/04/10 04:43:17;;;;;;;6.00;3.67;;;3.50;99.90;;;;;;5116788;28;20453;-71
2022/04/10 04:45:44;;;;;;;10.43;4.00;;;3.40;99.90;;;;;;5116899;28;20476;-70
2022/04/10 04:48:10;;;;;;;8.03;3.90;;;3.40;99.90;;;;;;5116954;28;20533;-71
2022/04/10 04:50:38;;;;;;;5.33;3.90;;;3.50;99.90;;;;;;5117076;28;20456;-70
2022/04/10 04:53:05;;;;;;;7.30;3.80;;;3.50;99.90;;;;;;5116734;28;20452;-70
2022/04/10 04:55:32;;;;;;;8.80;3.73;;;3.40;99.90;;;;;;5115590;28;20537;-70
2022/04/10 04:57:59;;;;;;;6.67;3.93;;;3.50;99.90;;;;;;5116741;28;20464;-71
2022/04/10 05:00:25;;;;;;;8.60;3.70;;;3.50;99.90;;;;;;5117070;28;20465;-70
2022/04/10 05:02:52;;;;;;;9.13;3.57;;;3.50;99.90;;;;;;5116394;28;20463;-70
2022/04/10 05:05:22;;;;;;;9.63;3.77;;;3.50;99.90;;;;;;5116688;28;20631;-71
2022/04/10 05:07:50;;;;;;;7.60;4.17;;;3.50;99.90;;;;;;5116899;28;20768;-71
2022/04/10 05:10:16;;;;;;;7.20;3.50;;;3.50;99.90;;;;;;5116751;28;20456;-71
2022/04/10 05:12:43;;;;;;;4.00;3.30;;;3.40;99.90;;;;;;5116894;28;20456;-70
2022/04/10 05:15:10;;;;;;;8.67;3.97;;;3.50;99.90;;;;;;5117186;28;20885;-70
2022/04/10 05:17:37;;;;;;;10.77;4.07;;;3.50;99.90;;;;;;5116951;28;20456;-70
2022/04/10 05:20:05;;;;;;;9.03;3.93;;;3.50;99.90;;;;;;5116413;28;20901;-70
2022/04/10 05:22:31;;;;;;;7.50;4.20;;;3.50;99.90;;;;;;5116319;28;20543;-70
2022/04/10 05:25:00;;;;;;;5.00;3.40;;;3.60;99.90;;;;;;5116289;28;20472;-70
2022/04/10 05:27:26;;;;;;;5.83;4.10;;;3.60;99.90;;;;;;5116316;28;20795;-70
2022/04/10 05:29:53;;;;;;;5.10;3.40;;;3.60;99.90;;;;;;5116232;28;20474;-70
2022/04/10 05:32:20;;;;;;;10.50;4.23;;;3.60;99.90;;;;;;5116128;28;20452;-70
2022/04/10 05:34:46;;;;;;;4.97;3.30;;;3.60;99.90;;;;;;5116028;28;20457;-71
2022/04/10 05:37:13;;;;;;;9.93;3.63;;;3.70;99.90;;;;;;5116229;28;20459;-70
2022/04/10 05:39:40;;;;;;;9.87;4.50;;;3.70;99.90;;;;;;5116048;28;20452;-70
2022/04/10 05:42:09;;;;;;;14.20;4.10;;;3.70;99.90;;;;;;5115904;28;20521;-70
2022/04/10 05:44:35;;;;;;;11.57;3.93;;;3.70;99.90;;;;;;5115889;28;20547;-70
2022/04/10 05:47:02;;;;;;;12.40;3.70;;;3.70;99.90;;;;;;5115901;28;20563;-70
2022/04/10 05:49:29;;;;;;;11.73;3.60;;;3.70;99.90;;;;;;5115874;28;20517;-70
2022/04/10 05:51:55;;;;;;;15.23;4.07;;;3.70;99.90;;;;;;5115989;28;20479;-70
2022/04/10 05:54:22;;;;;;;8.90;4.37;;;3.80;99.90;;;;;;5115641;28;20495;-71
2022/04/10 05:56:49;;;;;;;7.17;3.70;;;3.80;99.90;;;;;;5115746;28;20523;-70
2022/04/10 05:59:17;;;;;;;11.03;4.07;;;3.80;99.90;;;;;;5115425;28;20488;-70
2022/04/10 06:01:43;;;;;;;10.10;4.00;;;3.80;99.90;;;;;;5115540;28;20778;-70
2022/04/10 06:04:10;;;;;;;7.63;4.10;;;3.80;99.90;;;;;;5115565;28;20464;-70
2022/04/10 06:06:37;;;;;;;9.40;4.00;;;3.90;99.90;;;;;;5115225;28;20971;-70
2022/04/10 06:09:04;;;;;;;10.17;4.17;;;3.90;99.90;;;;;;5115171;28;20464;-71
2022/04/10 06:11:30;;;;;;;7.00;4.63;;;4.00;99.90;;;;;;5115085;28;20551;-69
2022/04/10 06:13:57;;;;;;;9.80;3.70;;;4.00;99.90;;;;;;5115508;28;20460;-71
2022/04/10 06:16:25;;;;;;;18.27;4.20;;;4.00;99.90;;;;;;5115132;28;20990;-71
2022/04/10 06:18:52;;;;;;;12.20;3.80;;;4.10;99.90;;;;;;5115138;28;20518;-71
2022/04/10 06:21:18;;;;;;;8.47;3.70;;;4.20;99.90;;;;;;5115429;28;20452;-69
2022/04/10 06:23:45;;;;;;;5.20;3.23;;;4.30;99.90;;;;;;5115450;28;20468;-71
2022/04/10 06:26:12;;;;;;;11.20;3.40;;;4.30;99.90;;;;;;5115500;28;20477;-72
2022/04/10 06:28:38;;;;;;;9.57;3.73;;;4.30;99.90;;;;;;5115294;28;20456;-71
2022/04/10 06:31:05;;;;;;;7.60;4.03;;;4.40;99.90;;;;;;5115349;28;20464;-71
2022/04/10 06:33:33;;;;;;;7.90;4.17;;;4.40;99.90;;;;;;5115254;28;20963;-71
2022/04/10 06:36:01;;;;;;;6.60;3.90;;;4.30;99.90;;;;;;5114971;28;20522;-71
2022/04/10 06:38:28;;;;;;;8.20;3.23;;;4.30;99.90;;;;;;5115408;28;20456;-71
2022/04/10 06:40:54;;;;;;;15.57;3.63;;;4.30;99.90;;;;;;5115413;28;20468;-71
2022/04/10 06:43:21;;;;;;;11.87;3.53;;;4.40;99.90;;;;;;5114718;28;20463;-71
2022/04/10 06:45:50;;;;;;;10.63;3.60;;;4.50;99.90;;;;;;5114758;28;20571;-71
2022/04/10 06:48:17;;;;;;;8.60;3.83;;;4.50;99.90;;;;;;5115190;28;20496;-71
2022/04/10 06:50:45;;;;;;;5.63;4.00;;;4.50;99.90;;;;;;5114861;28;20468;-71
2022/04/10 06:53:12;;;;;;;10.60;3.93;;;4.50;99.90;;;;;;5114728;28;20883;-71
2022/04/10 06:55:39;;;;;;;9.60;4.83;;;4.50;99.90;;;;;;5114606;28;20479;-70
2022/04/10 06:58:06;;;;;;;7.83;3.87;;;4.60;99.90;;;;;;5114666;28;20762;-71
2022/04/10 07:00:32;;;;;;;10.53;4.00;;;4.60;99.90;;;;;;5114993;28;20453;-71
2022/04/10 07:03:01;;;;;;;7.20;3.57;;;4.70;99.90;;;;;;5115062;28;20541;-70
2022/04/10 07:05:28;;;;;;;8.93;3.60;;;4.80;99.90;;;;;;5114856;28;20516;-70
2022/04/10 07:07:56;;;;;;;11.30;3.97;;;4.90;99.90;;;;;;5114901;28;20480;-70
2022/04/10 07:10:22;;;;;;;6.50;3.70;;;4.90;99.90;;;;;;5114775;28;20475;-71
2022/04/10 07:12:50;;;;;;;8.83;3.50;;;5.00;99.90;;;;;;5114915;28;20472;-71
2022/04/10 07:15:18;;;;;;;8.43;3.40;;;5.00;99.90;;;;;;5114807;28;20839;-70
2022/04/10 07:17:44;;;;;;;4.87;2.90;;;5.10;99.90;;;;;;5114711;28;20452;-70
2022/04/10 07:20:12;;;;;;;7.80;3.53;;;5.10;99.90;;;;;;5118425;28;20455;-71
2022/04/10 07:25:25;;;;;;;4.13;2.90;;;4.90;99.90;;;;;;5118903;28;20467;-71
2022/04/10 07:27:51;;;;;;;9.53;3.03;;;4.90;99.90;;;;;;5118395;28;20452;-70
2022/04/10 07:30:18;;;;;;;8.03;3.40;;;5.00;99.90;;;;;;5118297;28;20464;-72
2022/04/10 07:32:51;;;;;;;11.60;3.60;;;5.10;99.90;;;;;;5118111;28;20463;-72
2022/04/10 07:35:18;;;;;;;13.57;4.90;;;5.10;99.90;;;;;;5118711;28;20513;-71
2022/04/10 07:37:45;;;;;;;7.37;3.80;;;5.10;99.90;;;;;;5118386;28;20517;-71
2022/04/10 07:40:12;;;;;;;5.27;3.30;;;5.10;99.90;;;;;;5118504;28;20460;-71
2022/04/10 07:42:40;;;;;;;7.23;3.50;;;5.10;99.90;;;;;;5118219;28;20780;-71
2022/04/10 07:45:09;;;;;;;7.60;2.90;;;5.20;99.90;;;;;;5118550;28;20467;-71
2022/04/10 07:47:35;;;;;;;10.13;3.63;;;5.30;99.90;;;;;;5118792;28;20553;-71
2022/04/10 07:50:01;;;;;;;10.07;3.30;;;5.30;99.90;;;;;;5120167;28;20463;-71
2022/04/10 07:52:28;;;;;;;9.77;3.30;;;5.40;99.90;;;;;;5120351;28;20254;-71
2022/04/10 07:54:55;;;;;;;7.63;2.97;;;5.40;99.90;;;;;;5118602;28;20484;-71
2022/04/10 07:57:22;;;;;;;5.33;3.37;;;5.40;99.90;;;;;;5118373;28;20452;-71
2022/04/10 07:59:50;;;;;;;5.83;3.00;;;5.50;99.90;;;;;;5118352;28;20484;-71
2022/04/10 08:02:16;;;;;;;5.17;3.17;;;5.50;99.90;;;;;;5118088;28;20514;-71
2022/04/10 08:04:46;;;;;;;10.30;4.00;;;5.50;99.90;;;;;;5118203;28;20460;-71
2022/04/10 08:07:13;;;;;;;8.60;3.37;;;5.50;99.90;;;;;;5118389;28;20491;-72
2022/04/10 08:09:39;;;;;;;5.63;3.87;;;5.40;99.90;;;;;;5118657;28;20808;-71
2022/04/10 08:12:09;;;;;;;10.07;4.00;;;5.30;99.90;;;;;;5117593;28;20456;-71
2022/04/10 08:14:36;;;;;;;8.67;3.80;;;5.30;99.90;;;;;;5117739;28;20467;-71
2022/04/10 08:17:09;;;;;;;5.53;3.13;;;5.20;99.90;;;;;;5117914;28;20449;-71
2022/04/10 08:19:36;;;;;;;8.87;2.93;;;5.20;99.90;;;;;;5117828;28;20469;-71
2022/04/10 08:22:03;;;;;;;12.60;3.80;;;5.20;99.90;;;;;;5117140;28;20978;-70
2022/04/10 08:24:29;;;;;;;10.57;4.03;;;5.30;99.90;;;;;;5117009;28;20932;-70
2022/04/10 08:26:56;;;;;;;7.00;3.60;;;5.40;99.90;;;;;;5116828;28;20480;-70
2022/04/10 08:29:23;;;;;;;12.20;3.47;;;5.50;99.90;;;;;;5116972;28;20509;-71
2022/04/10 08:31:50;;;;;;;9.47;3.30;;;5.60;99.90;;;;;;5116077;28;20959;-71
2022/04/10 08:34:19;;;;;;;12.83;3.93;;;5.60;99.90;;;;;;5117126;28;20460;-71
2022/04/10 08:36:45;;;;;;;10.97;3.80;;;5.70;99.90;;;;;;5117177;28;20449;-71
2022/04/10 08:39:12;;;;;;;10.10;4.03;;;5.80;99.90;;;;;;5117200;28;20479;-72
2022/04/10 08:41:39;;;;;;;7.57;3.47;;;5.90;99.90;;;;;;5117257;28;20479;-71
2022/04/10 08:44:06;;;;;;;9.03;3.20;;;6.00;99.90;;;;;;5117053;28;20463;-71
2022/04/10 08:46:34;;;;;;;12.27;3.80;;;6.10;99.90;;;;;;5116800;28;20777;-71
2022/04/10 08:49:01;;;;;;;12.27;3.10;;;6.20;99.90;;;;;;5116796;28;20551;-71
2022/04/10 08:51:31;;;;;;;6.87;3.10;;;6.30;99.90;;;;;;5117125;28;20456;-71
2022/04/10 08:53:59;;;;;;;13.23;3.30;;;6.50;99.90;;;;;;5117331;28;20567;-71
2022/04/10 08:56:26;;;;;;;11.23;3.03;;;6.50;99.90;;;;;;5117806;28;20448;-71
2022/04/10 08:58:52;;;;;;;5.73;3.20;;;6.40;99.90;;;;;;5117283;28;20452;-71
2022/04/10 09:01:22;;;;;;;6.93;3.37;;;6.40;99.90;;;;;;5116884;28;20456;-70
2022/04/10 09:03:49;;;;;;;5.30;2.70;;;6.40;99.90;;;;;;5116939;28;20464;-70
2022/04/10 09:06:20;;;;;;;8.87;3.90;;;6.10;99.90;;;;;;5116412;28;20472;-70
2022/04/10 09:08:48;;;;;;;6.60;3.17;;;5.90;99.90;;;;;;5116932;28;20451;-70
2022/04/10 09:11:14;;;;;;;5.70;3.30;;;5.70;99.90;;;;;;5116606;28;20512;-70
2022/04/10 09:13:47;;;;;;;12.00;4.37;;;5.50;99.90;;;;;;5116876;28;20467;-70
2022/04/10 09:16:15;;;;;;;6.43;3.07;;;5.50;99.90;;;;;;5117071;28;20476;-70
2022/04/10 09:18:54;;;;;;;7.40;3.93;;;5.60;99.90;;;;;;5117310;28;20773;-70
2022/04/10 09:21:28;;;;;;;7.00;3.43;;;5.70;99.90;;;;;;5116162;28;20441;-71
2022/04/10 09:23:58;;;;;;;7.70;4.13;;;5.90;99.90;;;;;;5116860;28;20887;-71
2022/04/10 09:26:25;;;;;;;7.87;3.00;;;6.00;99.90;;;;;;5117121;28;20498;-71
2022/04/10 09:28:53;;;;;;;10.33;3.50;;;6.10;99.90;;;;;;5116838;28;20460;-72
2022/04/10 09:31:40;;;;;;;10.13;4.00;;;6.10;99.90;;;;;;5116855;28;20532;-71
2022/04/10 09:34:08;;;;;;;9.43;3.80;;;6.20;99.90;;;;;;5109817;28;20997;-71
2022/04/10 09:36:40;;;;;;;9.33;3.50;;;6.30;99.90;;;;;;5116159;28;20509;-69
2022/04/10 09:39:10;;;;;;;7.37;3.47;;;6.30;99.90;;;;;;5116373;28;20463;-71
2022/04/10 09:41:41;;;;;;;7.10;3.60;;;6.40;99.90;;;;;;5115632;28;20613;-69
2022/04/10 09:44:13;;;;;;;12.03;4.50;;;6.40;99.90;;;;;;5116256;28;20472;-72
2022/04/10 09:46:41;;;;;;;7.50;3.43;;;6.50;99.90;;;;;;5115781;28;20512;-71
2022/04/10 09:49:19;;;;;;;8.23;3.10;;;6.70;99.90;;;;;;5115888;28;20452;-71
2022/04/10 09:52:03;;;;;;;7.83;2.80;;;6.90;99.90;;;;;;5115844;28;20495;-72
2022/04/10 09:54:37;;;;;;;8.40;3.40;;;7.10;99.90;;;;;;5114721;28;20488;-72
2022/04/10 09:57:07;;;;;;;11.67;4.90;;;7.10;99.90;;;;;;5116004;28;20510;-69
2022/04/10 09:59:38;;;;;;;6.10;2.80;;;6.90;99.90;;;;;;5115191;28;20901;-71
2022/04/10 10:02:06;;;;;;;10.80;3.23;;;6.70;99.90;;;;;;5115507;28;20440;-71
2022/04/10 10:04:35;;;;;;;4.37;2.50;;;6.50;99.90;;;;;;5115572;28;20488;-71
2022/04/10 10:07:04;;;;;;;6.43;2.40;;;6.50;99.90;;;;;;5115310;28;20563;-71
2022/04/10 10:09:33;;;;;;;3.87;2.30;;;6.50;99.90;;;;;;5115345;28;20456;-71
2022/04/10 10:12:02;;;;;;;7.43;2.87;;;6.50;99.90;;;;;;5115818;28;20466;-72
2022/04/10 10:14:31;;;;;;;12.30;2.87;;;6.80;99.90;;;;;;5115585;28;20965;-71
2022/04/10 10:16:58;;;;;;;6.63;2.37;;;7.00;99.90;;;;;;5115299;28;20513;-71
2022/04/10 10:19:25;;;;;;;3.80;2.40;;;7.20;99.90;;;;;;5115168;28;20535;-71
2022/04/10 10:21:53;;;;;;;7.27;2.47;;;7.20;99.90;;;;;;5115181;28;20551;-71
2022/04/10 10:24:22;;;;;;;10.17;3.00;;;7.30;99.90;;;;;;5115128;28;20452;-71
2022/04/10 10:27:03;;;;;;;6.40;2.27;;;7.30;99.90;;;;;;5115224;28;20476;-71
2022/04/10 10:29:54;;;;;;;5.53;1.90;;;7.50;99.90;;;;;;5115424;28;20786;-71
2022/04/10 10:32:37;;;;;;;5.00;1.90;;;7.80;99.90;;;;;;5115293;28;20437;-72
2022/04/10 10:35:05;;;;;;;5.93;2.27;;;7.90;99.90;;;;;;5115224;28;20440;-71
2022/04/10 10:37:48;;;;;;;7.93;2.73;;;7.70;99.90;;;;;;5115004;28;20924;-71
2022/04/10 10:40:18;;;;;;;5.77;2.50;;;7.60;99.90;;;;;;5114987;28;20436;-72
2022/04/10 10:42:45;;;;;;;4.70;2.40;;;7.60;99.90;;;;;;5115439;28;20867;-71
2022/04/10 10:45:36;;;;;;;10.93;2.70;;;7.60;99.90;;;;;;5114715;28;20452;-72
2022/04/10 10:48:24;;;;;;;9.43;2.60;;;7.70;99.90;;;;;;5114927;28;20964;-71
2022/04/10 10:50:51;;;;;;;6.60;2.17;;;7.90;99.90;;;;;;5114705;28;20905;-71
2022/04/10 10:53:23;;;;;;;8.93;2.50;;;8.10;99.90;;;;;;5115475;28;20456;-71
2022/04/10 10:55:51;;;;;;;6.50;2.43;;;8.30;99.90;;;;;;5118835;28;20492;-69
2022/04/10 10:58:31;;;;;;;5.40;2.20;;;8.40;99.90;;;;;;5118853;28;20444;-71
2022/04/10 11:01:04;;;;;;;7.83;2.87;;;8.40;99.90;;;;;;5119031;28;20867;-71
2022/04/10 11:03:31;;;;;;;9.50;2.67;;;8.50;99.90;;;;;;5119052;28;20432;-71
2022/04/10 11:06:05;;;;;;;5.07;2.57;;;8.70;99.90;;;;;;5119260;28;20452;-71
2022/04/10 11:08:39;;;;;;;8.40;3.00;;;8.70;3.80;;;;;;5118629;28;20514;-71
2022/04/10 11:11:07;;;;;;;6.33;2.67;;;8.90;1.00;;;;;;5118841;28;20440;-71
2022/04/10 11:13:39;;;;;;;5.40;2.33;;;8.90;1.00;;;;;;5118752;28;20456;-71
2022/04/10 11:16:12;;;;;;;5.77;2.03;;;8.80;1.00;;;;;;5118546;28;20432;-71
2022/04/10 11:18:43;;;;;;;7.20;3.17;;;8.70;1.00;;;;;;5118939;28;20523;-71
2022/04/10 11:21:13;;;;;;;3.60;1.70;;;8.50;1.00;;;;;;5119635;28;20803;-70
2022/04/10 11:23:41;;;;;;;3.57;2.17;;;8.20;1.00;;;;;;5118736;28;20436;-70
2022/04/10 11:26:13;;;;;;;5.47;2.10;;;7.90;1.00;;;;;;5118281;28;20464;-70
2022/04/10 11:28:55;;;;;;;6.27;2.30;;;7.80;1.00;;;;;;5118394;28;20487;-70
2022/04/10 11:31:34;;;;;;;2.87;1.63;;;7.70;1.00;;;;;;5118709;28;20436;-70
2022/04/10 11:34:09;;;;;;;6.43;2.20;;;7.60;1.00;;;;;;5118453;28;20441;-70
2022/04/10 11:36:55;;;;;;;3.63;1.87;;;7.60;1.00;;;;;;5118175;28;20876;-70
2022/04/10 11:39:26;;;;;;;3.83;2.00;;;7.40;99.90;;;;;;5118528;28;20470;-70
2022/04/10 11:41:54;;;;;;;4.90;2.40;;;6.80;1.00;;;;;;5118382;28;20839;-70
2022/04/10 11:44:21;;;;;;;6.50;1.70;;;6.40;99.90;;;;;;5118002;28;20785;-71
2022/04/10 11:46:50;;;;;;;4.70;2.37;;;6.20;1.00;;;;;;5117707;28;20921;-70
2022/04/10 11:49:18;;;;;;;5.37;2.20;;;6.20;1.00;;;;;;5117800;28;20526;-70
2022/04/10 11:51:53;;;;;;;4.90;1.77;;;6.90;99.90;;;;;;5118067;28;20488;-71
2022/04/10 11:54:33;;;;;;;3.90;2.10;;;7.80;99.90;;;;;;5117870;28;20491;-71
2022/04/10 11:57:03;;;;;;;4.73;1.83;;;8.90;99.90;;;;;;5117561;28;20467;-70
2022/04/10 11:59:34;;;;;;;5.47;2.03;;;9.80;99.90;;;;;;5118127;28;20467;-71
2022/04/10 12:02:03;;;;;;;3.23;1.73;;;10.10;99.90;;;;;;5118773;28;20482;-71
2022/04/10 12:04:31;;;;;;;8.23;2.47;;;10.10;99.90;;;;;;5119239;28;20471;-71
2022/04/10 12:07:13;;;;;;;6.50;2.60;;;9.80;99.90;;;;;;5118822;28;20528;-70
2022/04/10 12:09:40;;;;;;;7.57;1.70;;;9.30;99.90;;;;;;5117481;28;20936;-70
2022/04/10 12:12:07;;;;;;;7.93;2.53;;;8.70;99.90;;;;;;5117362;28;20453;-71
2022/04/10 12:14:34;;;;;;;3.43;1.80;;;8.40;99.90;;;;;;5117804;28;20488;-71
2022/04/10 12:17:03;;;;;;;3.40;1.80;;;8.10;99.90;;;;;;5118708;28;20457;-71
2022/04/10 12:19:33;;;;;;;5.70;2.53;;;7.80;99.90;;;;;;5118136;28;20456;-72
2022/04/10 12:21:59;;;;;;;6.17;2.80;;;7.80;99.90;;;;;;5117577;28;20552;-71
2022/04/10 12:24:26;;;;;;;4.70;2.27;;;8.00;99.90;;;;;;5117374;28;20558;-71
2022/04/10 12:26:54;;;;;;;3.80;2.80;;;8.10;99.90;;;;;;5117243;28;20471;-71
2022/04/10 12:29:21;;;;;;;5.80;2.00;;;8.10;99.90;;;;;;5117081;28;20917;-71
2022/04/10 12:31:49;;;;;;;4.33;2.00;;;8.10;99.90;;;;;;5117552;28;20785;-71
2022/04/10 12:34:18;;;;;;;8.93;2.40;;;8.10;99.90;;;;;;5117287;28;20463;-71
2022/04/10 12:36:48;;;;;;;3.60;1.80;;;8.20;99.90;;;;;;5117020;28;20890;-71
2022/04/10 12:39:25;;;;;;;6.07;2.23;;;8.20;99.90;;;;;;5116751;28;20921;-71
2022/04/10 12:41:59;;;;;;;5.73;2.53;;;8.20;99.90;;;;;;5116983;28;20456;-71
2022/04/10 12:44:26;;;;;;;18.93;2.40;;;8.10;99.90;;;;;;5117037;28;20486;-72
2022/04/10 12:46:53;;;;;;;6.30;2.20;;;8.00;99.90;;;;;;5116976;28;20537;-71
2022/04/10 12:49:24;;;;;;;5.90;2.20;;;8.00;99.90;;;;;;5116686;28;20456;-72
2022/04/10 12:51:53;;;;;;;8.30;2.37;;;7.90;99.90;;;;;;5117095;28;20447;-70
2022/04/10 12:54:20;;;;;;;3.33;1.93;;;7.80;99.90;;;;;;5117212;28;20491;-71
2022/04/10 12:56:55;;;;;;;5.03;2.20;;;7.80;99.90;;;;;;5116947;28;20437;-71
2022/04/10 12:59:22;;;;;;;4.10;2.10;;;7.90;99.90;;;;;;5117073;28;20436;-71
2022/04/10 13:01:53;;;;;;;5.67;1.90;;;8.00;99.90;;;;;;5117020;28;20460;-71
2022/04/10 13:04:29;;;;;;;3.00;1.80;;;8.00;99.90;;;;;;5117134;28;20441;-71